sensor_id;sensor_type;location;lat;lon;timestamp;P1;durP1;ratioP1;P2;durP2;ratioP2
9667;SDS011;4872;48.316;10.650;2023-03-01T05:08:37;28.33;;;19.17;;
9667;SDS011;4872;48.316;10.650;2023-03-01T05:11:04;26.00;;;18.20;;
9667;SDS011;4872;48.316;10.650;2023-03-01T05:13:33;24.63;;;18.60;;
9667;SDS011;4872;48.316;10.650;2023-03-01T05:16:01;29.33;;;20.53;;
9667;SDS011;4872;48.316;10.650;2023-03-01T05:18:29;25.47;;;18.23;;
9667;SDS011;4872;48.316;10.650;2023-03-01T05:21:01;27.27;;;18.60;;
9667;SDS011;4872;48.316;10.650;2023-03-01T05:23:29;23.43;;;18.40;;
9667;SDS011;4872;48.316;10.650;2023-03-01T05:25:58;25.90;;;18.73;;
9667;SDS011;4872;48.316;10.650;2023-03-01T05:28:25;26.50;;;20.13;;
9667;SDS011;4872;48.316;10.650;2023-03-01T05:30:53;26.53;;;19.20;;
9667;SDS011;4872;48.316;10.650;2023-03-01T05:33:20;28.63;;;19.50;;
9667;SDS011;4872;48.316;10.650;2023-03-01T05:35:47;25.80;;;18.93;;
9667;SDS011;4872;48.316;10.650;2023-03-01T05:38:15;28.77;;;19.77;;
9667;SDS011;4872;48.316;10.650;2023-03-01T05:40:42;27.37;;;19.13;;
9667;SDS011;4872;48.316;10.650;2023-03-01T05:43:12;25.00;;;19.17;;
9667;SDS011;4872;48.316;10.650;2023-03-01T05:45:41;29.80;;;20.63;;
9667;SDS011;4872;48.316;10.650;2023-03-01T05:48:08;24.00;;;18.13;;
9667;SDS011;4872;48.316;10.650;2023-03-01T05:50:36;25.60;;;18.53;;
9667;SDS011;4872;48.316;10.650;2023-03-01T05:53:06;27.10;;;18.20;;
9667;SDS011;4872;48.316;10.650;2023-03-01T05:55:35;27.23;;;19.97;;
9667;SDS011;4872;48.316;10.650;2023-03-01T05:58:03;27.00;;;19.40;;
9667;SDS011;4872;48.316;10.650;2023-03-01T06:00:33;29.10;;;20.47;;
9667;SDS011;4872;48.316;10.650;2023-03-01T06:03:00;27.47;;;18.60;;
9667;SDS011;4872;48.316;10.650;2023-03-01T06:05:28;28.53;;;19.50;;
9667;SDS011;4872;48.316;10.650;2023-03-01T06:07:55;28.00;;;19.30;;
9667;SDS011;4872;48.316;10.650;2023-03-01T06:10:24;29.20;;;19.17;;
9667;SDS011;4872;48.316;10.650;2023-03-01T06:12:51;28.97;;;19.13;;
9667;SDS011;4872;48.316;10.650;2023-03-01T06:15:18;29.10;;;20.07;;
9667;SDS011;4872;48.316;10.650;2023-03-01T06:17:46;28.67;;;19.90;;
9667;SDS011;4872;48.316;10.650;2023-03-01T06:20:13;27.77;;;19.30;;
9667;SDS011;4872;48.316;10.650;2023-03-01T06:22:42;29.20;;;20.87;;
9667;SDS011;4872;48.316;10.650;2023-03-01T06:25:09;31.33;;;20.57;;
9667;SDS011;4872;48.316;10.650;2023-03-01T06:27:37;28.93;;;21.23;;
9667;SDS011;4872;48.316;10.650;2023-03-01T06:30:05;31.60;;;20.63;;
9667;SDS011;4872;48.316;10.650;2023-03-01T06:32:33;27.57;;;19.10;;
9667;SDS011;4872;48.316;10.650;2023-03-01T06:35:01;30.77;;;20.57;;
9667;SDS011;4872;48.316;10.650;2023-03-01T06:37:27;27.20;;;20.63;;
9667;SDS011;4872;48.316;10.650;2023-03-01T06:39:54;30.03;;;19.97;;
9667;SDS011;4872;48.316;10.650;2023-03-01T06:42:21;29.40;;;20.43;;
9667;SDS011;4872;48.316;10.650;2023-03-01T06:44:48;28.93;;;19.23;;
9667;SDS011;4872;48.316;10.650;2023-03-01T06:47:15;32.47;;;20.93;;
9667;SDS011;4872;48.316;10.650;2023-03-01T06:49:42;27.27;;;20.63;;
9667;SDS011;4872;48.316;10.650;2023-03-01T06:52:10;28.87;;;19.47;;
9667;SDS011;4872;48.316;10.650;2023-03-01T06:54:36;26.53;;;20.50;;
9667;SDS011;4872;48.316;10.650;2023-03-01T06:57:03;27.83;;;20.97;;
9667;SDS011;4872;48.316;10.650;2023-03-01T06:59:30;27.60;;;19.60;;
9667;SDS011;4872;48.316;10.650;2023-03-01T07:01:57;30.87;;;20.40;;
9667;SDS011;4872;48.316;10.650;2023-03-01T07:04:23;29.77;;;20.03;;
9667;SDS011;4872;48.316;10.650;2023-03-01T07:06:53;29.93;;;20.60;;
9667;SDS011;4872;48.316;10.650;2023-03-01T07:09:21;30.87;;;20.83;;
9667;SDS011;4872;48.316;10.650;2023-03-01T07:11:49;30.50;;;21.07;;
9667;SDS011;4872;48.316;10.650;2023-03-01T07:14:16;28.40;;;19.20;;
9667;SDS011;4872;48.316;10.650;2023-03-01T07:16:44;30.03;;;20.93;;
9667;SDS011;4872;48.316;10.650;2023-03-01T07:19:11;30.90;;;20.43;;
9667;SDS011;4872;48.316;10.650;2023-03-01T07:21:38;30.03;;;20.43;;
9667;SDS011;4872;48.316;10.650;2023-03-01T07:24:05;30.30;;;20.87;;
9667;SDS011;4872;48.316;10.650;2023-03-01T07:26:34;31.67;;;21.23;;
9667;SDS011;4872;48.316;10.650;2023-03-01T07:29:01;34.00;;;22.00;;
9667;SDS011;4872;48.316;10.650;2023-03-01T07:31:28;33.07;;;21.37;;
9667;SDS011;4872;48.316;10.650;2023-03-01T07:33:55;29.03;;;20.23;;
9667;SDS011;4872;48.316;10.650;2023-03-01T07:36:22;29.83;;;20.40;;
9667;SDS011;4872;48.316;10.650;2023-03-01T07:38:49;28.90;;;20.70;;
9667;SDS011;4872;48.316;10.650;2023-03-01T07:41:16;30.27;;;20.43;;
9667;SDS011;4872;48.316;10.650;2023-03-01T07:43:45;28.97;;;21.63;;
9667;SDS011;4872;48.316;10.650;2023-03-01T07:46:11;28.33;;;19.40;;
9667;SDS011;4872;48.316;10.650;2023-03-01T07:48:38;26.77;;;18.83;;
9667;SDS011;4872;48.316;10.650;2023-03-01T07:51:05;28.63;;;20.03;;
9667;SDS011;4872;48.316;10.650;2023-03-01T07:53:33;26.83;;;19.10;;
9667;SDS011;4872;48.316;10.650;2023-03-01T07:56:01;30.33;;;19.73;;
9667;SDS011;4872;48.316;10.650;2023-03-01T07:58:29;31.70;;;20.17;;
9667;SDS011;4872;48.316;10.650;2023-03-01T08:00:57;30.23;;;20.13;;
9667;SDS011;4872;48.316;10.650;2023-03-01T08:03:27;29.03;;;18.97;;
9667;SDS011;4872;48.316;10.650;2023-03-01T08:05:54;26.37;;;18.73;;
9667;SDS011;4872;48.316;10.650;2023-03-01T08:08:21;30.03;;;18.70;;
9667;SDS011;4872;48.316;10.650;2023-03-01T08:10:48;26.27;;;18.30;;
9667;SDS011;4872;48.316;10.650;2023-03-01T08:13:14;24.40;;;18.23;;
9667;SDS011;4872;48.316;10.650;2023-03-01T08:15:43;26.07;;;18.00;;
9667;SDS011;4872;48.316;10.650;2023-03-01T08:18:11;26.03;;;18.30;;
9667;SDS011;4872;48.316;10.650;2023-03-01T08:20:38;25.23;;;17.90;;
9667;SDS011;4872;48.316;10.650;2023-03-01T08:23:05;26.43;;;18.03;;
9667;SDS011;4872;48.316;10.650;2023-03-01T08:25:32;27.27;;;18.03;;
9667;SDS011;4872;48.316;10.650;2023-03-01T08:27:58;26.77;;;17.60;;
9667;SDS011;4872;48.316;10.650;2023-03-01T08:30:25;26.70;;;18.37;;
9667;SDS011;4872;48.316;10.650;2023-03-01T08:32:52;26.10;;;18.33;;
9667;SDS011;4872;48.316;10.650;2023-03-01T08:35:20;26.80;;;18.30;;
9667;SDS011;4872;48.316;10.650;2023-03-01T08:37:47;28.13;;;18.63;;
9667;SDS011;4872;48.316;10.650;2023-03-01T08:40:14;28.30;;;18.10;;
9667;SDS011;4872;48.316;10.650;2023-03-01T08:42:41;26.27;;;18.30;;
9667;SDS011;4872;48.316;10.650;2023-03-01T08:45:09;24.67;;;17.60;;
9667;SDS011;4872;48.316;10.650;2023-03-01T08:47:36;25.90;;;17.53;;
9667;SDS011;4872;48.316;10.650;2023-03-01T08:50:04;27.33;;;18.67;;
9667;SDS011;4872;48.316;10.650;2023-03-01T08:52:33;23.00;;;17.83;;
9667;SDS011;4872;48.316;10.650;2023-03-01T08:54:59;25.27;;;18.80;;
9667;SDS011;4872;48.316;10.650;2023-03-01T08:57:27;26.67;;;18.57;;
9667;SDS011;4872;48.316;10.650;2023-03-01T08:59:54;24.20;;;17.30;;
9667;SDS011;4872;48.316;10.650;2023-03-01T09:02:21;26.30;;;18.40;;
9667;SDS011;4872;48.316;10.650;2023-03-01T09:04:48;25.40;;;18.23;;
9667;SDS011;4872;48.316;10.650;2023-03-01T09:07:15;26.17;;;17.67;;
9667;SDS011;4872;48.316;10.650;2023-03-01T09:09:43;27.90;;;18.57;;
9667;SDS011;4872;48.316;10.650;2023-03-01T09:12:10;24.53;;;17.63;;
9667;SDS011;4872;48.316;10.650;2023-03-01T09:14:36;28.10;;;19.67;;
9667;SDS011;4872;48.316;10.650;2023-03-01T09:17:04;26.70;;;18.60;;
9667;SDS011;4872;48.316;10.650;2023-03-01T09:19:30;27.23;;;18.90;;
9667;SDS011;4872;48.316;10.650;2023-03-01T09:21:57;25.23;;;18.30;;
9667;SDS011;4872;48.316;10.650;2023-03-01T09:24:24;24.63;;;17.93;;
9667;SDS011;4872;48.316;10.650;2023-03-01T09:26:53;25.80;;;17.80;;
9667;SDS011;4872;48.316;10.650;2023-03-01T09:29:21;28.30;;;19.27;;
9667;SDS011;4872;48.316;10.650;2023-03-01T09:31:48;30.07;;;19.57;;
9667;SDS011;4872;48.316;10.650;2023-03-01T09:34:15;27.63;;;18.47;;
9667;SDS011;4872;48.316;10.650;2023-03-01T09:36:48;26.83;;;18.23;;
9667;SDS011;4872;48.316;10.650;2023-03-01T09:39:14;25.00;;;18.20;;
9667;SDS011;4872;48.316;10.650;2023-03-01T09:41:44;26.17;;;17.80;;
9667;SDS011;4872;48.316;10.650;2023-03-01T09:44:21;26.37;;;17.53;;
9667;SDS011;4872;48.316;10.650;2023-03-01T09:46:57;29.87;;;19.10;;
9667;SDS011;4872;48.316;10.650;2023-03-01T09:49:25;27.13;;;18.53;;
9667;SDS011;4872;48.316;10.650;2023-03-01T09:51:56;28.10;;;17.93;;
9667;SDS011;4872;48.316;10.650;2023-03-01T09:54:27;25.13;;;17.87;;
9667;SDS011;4872;48.316;10.650;2023-03-01T09:56:59;27.03;;;17.37;;
9667;SDS011;4872;48.316;10.650;2023-03-01T09:59:36;25.53;;;16.70;;
9667;SDS011;4872;48.316;10.650;2023-03-01T10:02:19;27.17;;;17.67;;
9667;SDS011;4872;48.316;10.650;2023-03-01T10:04:52;27.03;;;17.60;;
9667;SDS011;4872;48.316;10.650;2023-03-01T10:07:29;28.90;;;18.40;;
9667;SDS011;4872;48.316;10.650;2023-03-01T10:10:04;22.90;;;16.60;;
9667;SDS011;4872;48.316;10.650;2023-03-01T10:12:33;24.67;;;17.03;;
9667;SDS011;4872;48.316;10.650;2023-03-01T10:15:04;26.63;;;18.93;;
9667;SDS011;4872;48.316;10.650;2023-03-01T10:17:38;27.50;;;18.57;;
9667;SDS011;4872;48.316;10.650;2023-03-01T10:20:14;27.33;;;19.10;;
9667;SDS011;4872;48.316;10.650;2023-03-01T10:22:43;25.80;;;17.57;;
9667;SDS011;4872;48.316;10.650;2023-03-01T10:25:15;27.93;;;19.10;;
9667;SDS011;4872;48.316;10.650;2023-03-01T10:27:48;25.53;;;17.67;;
9667;SDS011;4872;48.316;10.650;2023-03-01T10:30:21;27.60;;;18.83;;
9667;SDS011;4872;48.316;10.650;2023-03-01T10:32:55;25.40;;;18.00;;
9667;SDS011;4872;48.316;10.650;2023-03-01T10:35:24;24.10;;;17.87;;
9667;SDS011;4872;48.316;10.650;2023-03-01T10:37:56;26.97;;;19.03;;
9667;SDS011;4872;48.316;10.650;2023-03-01T10:40:24;25.97;;;18.80;;
9667;SDS011;4872;48.316;10.650;2023-03-01T10:42:51;27.17;;;19.50;;
9667;SDS011;4872;48.316;10.650;2023-03-01T10:45:27;24.87;;;17.77;;
9667;SDS011;4872;48.316;10.650;2023-03-01T10:48:02;26.73;;;18.63;;
9667;SDS011;4872;48.316;10.650;2023-03-01T10:50:38;25.83;;;18.77;;
9667;SDS011;4872;48.316;10.650;2023-03-01T10:53:16;24.90;;;16.90;;
9667;SDS011;4872;48.316;10.650;2023-03-01T10:55:48;25.17;;;18.57;;
9667;SDS011;4872;48.316;10.650;2023-03-01T10:58:24;24.33;;;17.57;;
9667;SDS011;4872;48.316;10.650;2023-03-01T11:00:52;25.47;;;16.80;;
9667;SDS011;4872;48.316;10.650;2023-03-01T11:03:22;20.03;;;16.10;;
9667;SDS011;4872;48.316;10.650;2023-03-01T11:05:58;25.07;;;16.77;;
9667;SDS011;4872;48.316;10.650;2023-03-01T11:08:31;22.07;;;16.37;;
9667;SDS011;4872;48.316;10.650;2023-03-01T11:11:07;21.17;;;17.23;;
9667;SDS011;4872;48.316;10.650;2023-03-01T11:13:49;28.03;;;18.10;;
9667;SDS011;4872;48.316;10.650;2023-03-01T11:16:24;22.63;;;17.07;;
9667;SDS011;4872;48.316;10.650;2023-03-01T11:18:58;21.60;;;17.47;;
9667;SDS011;4872;48.316;10.650;2023-03-01T11:21:27;23.73;;;17.00;;
9667;SDS011;4872;48.316;10.650;2023-03-01T11:23:57;21.47;;;16.60;;
9667;SDS011;4872;48.316;10.650;2023-03-01T11:26:25;22.80;;;17.13;;
9667;SDS011;4872;48.316;10.650;2023-03-01T11:28:55;20.93;;;17.07;;
9667;SDS011;4872;48.316;10.650;2023-03-01T11:31:28;20.93;;;15.37;;
9667;SDS011;4872;48.316;10.650;2023-03-01T11:33:56;24.13;;;16.93;;
9667;SDS011;4872;48.316;10.650;2023-03-01T11:36:28;20.67;;;16.83;;
9667;SDS011;4872;48.316;10.650;2023-03-01T11:39:02;19.97;;;16.10;;
9667;SDS011;4872;48.316;10.650;2023-03-01T11:41:31;21.73;;;17.40;;
9667;SDS011;4872;48.316;10.650;2023-03-01T11:44:02;23.30;;;17.10;;
9667;SDS011;4872;48.316;10.650;2023-03-01T11:49:36;41.90;;;27.87;;
9667;SDS011;4872;48.316;10.650;2023-03-01T11:52:19;29.47;;;21.53;;
9667;SDS011;4872;48.316;10.650;2023-03-01T11:54:55;35.57;;;23.57;;
9667;SDS011;4872;48.316;10.650;2023-03-01T11:57:36;20.87;;;16.20;;
9667;SDS011;4872;48.316;10.650;2023-03-01T12:00:15;22.57;;;17.30;;
9667;SDS011;4872;48.316;10.650;2023-03-01T12:05:51;20.70;;;17.37;;
9667;SDS011;4872;48.316;10.650;2023-03-01T12:08:32;23.13;;;17.47;;
9667;SDS011;4872;48.316;10.650;2023-03-01T12:11:06;21.97;;;16.30;;
9667;SDS011;4872;48.316;10.650;2023-03-01T12:16:51;20.30;;;17.27;;
9667;SDS011;4872;48.316;10.650;2023-03-01T12:19:41;22.73;;;17.23;;
9667;SDS011;4872;48.316;10.650;2023-03-01T12:25:16;18.37;;;15.70;;
9667;SDS011;4872;48.316;10.650;2023-03-01T12:31:00;19.60;;;17.37;;
9667;SDS011;4872;48.316;10.650;2023-03-01T12:33:44;17.77;;;15.87;;
9667;SDS011;4872;48.316;10.650;2023-03-01T12:36:22;17.80;;;15.90;;
9667;SDS011;4872;48.316;10.650;2023-03-01T12:39:07;17.93;;;16.03;;
9667;SDS011;4872;48.316;10.650;2023-03-01T12:41:48;20.60;;;16.80;;
9667;SDS011;4872;48.316;10.650;2023-03-01T12:44:31;18.53;;;16.13;;
9667;SDS011;4872;48.316;10.650;2023-03-01T12:47:13;20.27;;;16.43;;
9667;SDS011;4872;48.316;10.650;2023-03-01T12:49:51;19.93;;;16.83;;
9667;SDS011;4872;48.316;10.650;2023-03-01T12:52:23;20.43;;;16.77;;
9667;SDS011;4872;48.316;10.650;2023-03-01T12:54:59;21.57;;;17.77;;
9667;SDS011;4872;48.316;10.650;2023-03-01T12:57:29;20.43;;;16.73;;
9667;SDS011;4872;48.316;10.650;2023-03-01T13:00:06;21.80;;;17.20;;
9667;SDS011;4872;48.316;10.650;2023-03-01T13:02:49;19.60;;;16.30;;
9667;SDS011;4872;48.316;10.650;2023-03-01T13:05:26;21.27;;;16.67;;
9667;SDS011;4872;48.316;10.650;2023-03-01T13:08:05;24.83;;;17.43;;
9667;SDS011;4872;48.316;10.650;2023-03-01T13:10:39;20.03;;;15.80;;
9667;SDS011;4872;48.316;10.650;2023-03-01T13:13:13;20.30;;;16.87;;
9667;SDS011;4872;48.316;10.650;2023-03-01T13:15:45;21.07;;;16.37;;
9667;SDS011;4872;48.316;10.650;2023-03-01T13:18:32;21.53;;;17.10;;
9667;SDS011;4872;48.316;10.650;2023-03-01T13:21:00;22.60;;;16.77;;
9667;SDS011;4872;48.316;10.650;2023-03-01T13:23:32;19.87;;;15.93;;
9667;SDS011;4872;48.316;10.650;2023-03-01T13:28:58;20.33;;;15.27;;
9667;SDS011;4872;48.316;10.650;2023-03-01T13:34:45;22.67;;;16.93;;
9667;SDS011;4872;48.316;10.650;2023-03-01T13:37:18;20.67;;;15.97;;
9667;SDS011;4872;48.316;10.650;2023-03-01T13:39:49;21.27;;;16.57;;
9667;SDS011;4872;48.316;10.650;2023-03-01T13:42:33;23.50;;;17.33;;
9667;SDS011;4872;48.316;10.650;2023-03-01T13:48:03;21.10;;;16.80;;
9667;SDS011;4872;48.316;10.650;2023-03-01T13:50:37;20.77;;;17.63;;
9667;SDS011;4872;48.316;10.650;2023-03-01T13:53:14;20.00;;;16.10;;
9667;SDS011;4872;48.316;10.650;2023-03-01T13:55:46;22.47;;;17.33;;
9667;SDS011;4872;48.316;10.650;2023-03-01T13:58:16;20.43;;;16.97;;
9667;SDS011;4872;48.316;10.650;2023-03-01T14:00:54;19.07;;;15.67;;
9667;SDS011;4872;48.316;10.650;2023-03-01T14:03:22;21.23;;;16.70;;
9667;SDS011;4872;48.316;10.650;2023-03-01T14:08:28;21.90;;;17.17;;
9667;SDS011;4872;48.316;10.650;2023-03-01T14:11:02;21.00;;;16.20;;
9667;SDS011;4872;48.316;10.650;2023-03-01T14:13:47;21.87;;;16.87;;
9667;SDS011;4872;48.316;10.650;2023-03-01T14:16:31;19.13;;;16.10;;
9667;SDS011;4872;48.316;10.650;2023-03-01T14:19:07;22.10;;;16.03;;
9667;SDS011;4872;48.316;10.650;2023-03-01T14:21:42;22.07;;;16.20;;
9667;SDS011;4872;48.316;10.650;2023-03-01T14:24:15;20.20;;;16.03;;
9667;SDS011;4872;48.316;10.650;2023-03-01T14:26:47;20.47;;;15.97;;
9667;SDS011;4872;48.316;10.650;2023-03-01T14:29:24;19.77;;;15.47;;
9667;SDS011;4872;48.316;10.650;2023-03-01T14:32:08;20.30;;;15.70;;
9667;SDS011;4872;48.316;10.650;2023-03-01T14:34:36;19.33;;;14.90;;
9667;SDS011;4872;48.316;10.650;2023-03-01T14:37:10;19.20;;;15.50;;
9667;SDS011;4872;48.316;10.650;2023-03-01T14:39:37;19.43;;;15.60;;
9667;SDS011;4872;48.316;10.650;2023-03-01T14:42:05;21.30;;;15.83;;
9667;SDS011;4872;48.316;10.650;2023-03-01T14:44:32;18.80;;;15.03;;
9667;SDS011;4872;48.316;10.650;2023-03-01T14:47:02;17.60;;;14.20;;
9667;SDS011;4872;48.316;10.650;2023-03-01T14:49:30;20.53;;;15.83;;
9667;SDS011;4872;48.316;10.650;2023-03-01T14:51:58;17.30;;;14.70;;
9667;SDS011;4872;48.316;10.650;2023-03-01T14:54:29;18.10;;;14.47;;
9667;SDS011;4872;48.316;10.650;2023-03-01T14:57:02;17.97;;;14.73;;
9667;SDS011;4872;48.316;10.650;2023-03-01T14:59:32;18.23;;;14.17;;
9667;SDS011;4872;48.316;10.650;2023-03-01T15:02:00;17.83;;;14.13;;
9667;SDS011;4872;48.316;10.650;2023-03-01T15:04:27;19.00;;;13.90;;
9667;SDS011;4872;48.316;10.650;2023-03-01T15:06:56;17.87;;;13.90;;
9667;SDS011;4872;48.316;10.650;2023-03-01T15:09:29;17.87;;;14.27;;
9667;SDS011;4872;48.316;10.650;2023-03-01T15:12:00;19.13;;;14.87;;
9667;SDS011;4872;48.316;10.650;2023-03-01T15:14:48;19.80;;;15.33;;
9667;SDS011;4872;48.316;10.650;2023-03-01T15:17:19;16.43;;;14.07;;
9667;SDS011;4872;48.316;10.650;2023-03-01T15:19:50;16.53;;;13.40;;
9667;SDS011;4872;48.316;10.650;2023-03-01T15:22:17;19.77;;;14.87;;
9667;SDS011;4872;48.316;10.650;2023-03-01T15:24:46;19.00;;;14.33;;
9667;SDS011;4872;48.316;10.650;2023-03-01T15:27:14;18.77;;;15.10;;
9667;SDS011;4872;48.316;10.650;2023-03-01T15:29:49;16.17;;;13.30;;
9667;SDS011;4872;48.316;10.650;2023-03-01T15:32:23;18.37;;;14.80;;
9667;SDS011;4872;48.316;10.650;2023-03-01T15:34:53;19.90;;;15.53;;
9667;SDS011;4872;48.316;10.650;2023-03-01T15:37:38;17.83;;;14.60;;
9667;SDS011;4872;48.316;10.650;2023-03-01T15:40:20;17.40;;;14.67;;
9667;SDS011;4872;48.316;10.650;2023-03-01T15:42:56;18.80;;;14.87;;
9667;SDS011;4872;48.316;10.650;2023-03-01T15:45:25;19.50;;;14.03;;
9667;SDS011;4872;48.316;10.650;2023-03-01T15:47:53;17.10;;;14.80;;
9667;SDS011;4872;48.316;10.650;2023-03-01T15:50:23;17.47;;;14.43;;
9667;SDS011;4872;48.316;10.650;2023-03-01T15:52:51;18.07;;;14.63;;
9667;SDS011;4872;48.316;10.650;2023-03-01T15:55:20;16.03;;;14.23;;
9667;SDS011;4872;48.316;10.650;2023-03-01T15:57:48;17.60;;;14.83;;
9667;SDS011;4872;48.316;10.650;2023-03-01T16:00:15;18.37;;;14.20;;
9667;SDS011;4872;48.316;10.650;2023-03-01T16:02:44;18.07;;;15.20;;
9667;SDS011;4872;48.316;10.650;2023-03-01T16:05:19;20.40;;;16.03;;
9667;SDS011;4872;48.316;10.650;2023-03-01T16:07:48;21.13;;;16.40;;
9667;SDS011;4872;48.316;10.650;2023-03-01T16:10:15;19.57;;;14.77;;
9667;SDS011;4872;48.316;10.650;2023-03-01T16:12:42;20.87;;;15.07;;
9667;SDS011;4872;48.316;10.650;2023-03-01T16:15:11;17.13;;;14.40;;
9667;SDS011;4872;48.316;10.650;2023-03-01T16:17:42;19.83;;;14.90;;
9667;SDS011;4872;48.316;10.650;2023-03-01T16:20:10;20.90;;;15.93;;
9667;SDS011;4872;48.316;10.650;2023-03-01T16:22:40;19.40;;;15.40;;
9667;SDS011;4872;48.316;10.650;2023-03-01T16:25:07;19.43;;;15.27;;
9667;SDS011;4872;48.316;10.650;2023-03-01T16:27:35;22.47;;;15.80;;
9667;SDS011;4872;48.316;10.650;2023-03-01T16:30:02;17.43;;;14.90;;
9667;SDS011;4872;48.316;10.650;2023-03-01T16:32:30;18.23;;;15.03;;
9667;SDS011;4872;48.316;10.650;2023-03-01T16:34:56;22.70;;;16.60;;
9667;SDS011;4872;48.316;10.650;2023-03-01T16:37:25;23.63;;;16.07;;
9667;SDS011;4872;48.316;10.650;2023-03-01T16:39:51;22.13;;;17.07;;
9667;SDS011;4872;48.316;10.650;2023-03-01T16:42:18;22.90;;;16.37;;
9667;SDS011;4872;48.316;10.650;2023-03-01T16:44:45;20.90;;;16.27;;
9667;SDS011;4872;48.316;10.650;2023-03-01T16:47:12;24.33;;;15.80;;
9667;SDS011;4872;48.316;10.650;2023-03-01T16:49:39;21.43;;;15.53;;
9667;SDS011;4872;48.316;10.650;2023-03-01T16:52:05;21.63;;;16.43;;
9667;SDS011;4872;48.316;10.650;2023-03-01T16:54:33;22.30;;;16.07;;
9667;SDS011;4872;48.316;10.650;2023-03-01T16:57:00;23.20;;;16.23;;
9667;SDS011;4872;48.316;10.650;2023-03-01T16:59:27;21.50;;;17.03;;
9667;SDS011;4872;48.316;10.650;2023-03-01T17:01:54;21.97;;;16.57;;
9667;SDS011;4872;48.316;10.650;2023-03-01T17:04:20;24.47;;;16.53;;
9667;SDS011;4872;48.316;10.650;2023-03-01T17:06:47;22.50;;;16.83;;
9667;SDS011;4872;48.316;10.650;2023-03-01T17:09:15;24.07;;;17.63;;
9667;SDS011;4872;48.316;10.650;2023-03-01T17:11:44;21.07;;;16.40;;
9667;SDS011;4872;48.316;10.650;2023-03-01T17:14:10;23.33;;;16.90;;
9667;SDS011;4872;48.316;10.650;2023-03-01T17:16:37;25.80;;;18.83;;
9667;SDS011;4872;48.316;10.650;2023-03-01T17:19:04;30.47;;;21.30;;
9667;SDS011;4872;48.316;10.650;2023-03-01T17:21:31;23.20;;;17.03;;
9667;SDS011;4872;48.316;10.650;2023-03-01T17:23:57;26.10;;;18.13;;
9667;SDS011;4872;48.316;10.650;2023-03-01T17:26:25;23.83;;;17.13;;
9667;SDS011;4872;48.316;10.650;2023-03-01T17:28:54;21.93;;;16.07;;
9667;SDS011;4872;48.316;10.650;2023-03-01T17:31:23;23.50;;;16.70;;
9667;SDS011;4872;48.316;10.650;2023-03-01T17:33:50;22.70;;;17.17;;
9667;SDS011;4872;48.316;10.650;2023-03-01T17:36:16;23.40;;;17.43;;
9667;SDS011;4872;48.316;10.650;2023-03-01T17:38:43;21.43;;;16.83;;
9667;SDS011;4872;48.316;10.650;2023-03-01T17:41:10;26.27;;;19.10;;
9667;SDS011;4872;48.316;10.650;2023-03-01T17:43:40;23.50;;;17.17;;
9667;SDS011;4872;48.316;10.650;2023-03-01T17:46:08;25.13;;;18.70;;
9667;SDS011;4872;48.316;10.650;2023-03-01T17:48:35;22.53;;;16.23;;
9667;SDS011;4872;48.316;10.650;2023-03-01T17:51:04;24.70;;;18.67;;
9667;SDS011;4872;48.316;10.650;2023-03-01T17:53:32;26.07;;;18.30;;
9667;SDS011;4872;48.316;10.650;2023-03-01T17:55:59;21.57;;;16.53;;
9667;SDS011;4872;48.316;10.650;2023-03-01T17:58:27;21.47;;;16.10;;
9667;SDS011;4872;48.316;10.650;2023-03-01T18:00:54;23.43;;;18.47;;
9667;SDS011;4872;48.316;10.650;2023-03-01T18:03:22;23.17;;;15.90;;
9667;SDS011;4872;48.316;10.650;2023-03-01T18:05:48;24.37;;;17.87;;
9667;SDS011;4872;48.316;10.650;2023-03-01T18:08:15;24.87;;;17.80;;
9667;SDS011;4872;48.316;10.650;2023-03-01T18:10:42;23.47;;;18.17;;
9667;SDS011;4872;48.316;10.650;2023-03-01T18:13:09;28.83;;;19.17;;
9667;SDS011;4872;48.316;10.650;2023-03-01T18:15:38;25.83;;;18.33;;
9667;SDS011;4872;48.316;10.650;2023-03-01T18:18:05;26.47;;;18.83;;
9667;SDS011;4872;48.316;10.650;2023-03-01T18:20:33;26.33;;;19.23;;
9667;SDS011;4872;48.316;10.650;2023-03-01T18:23:00;26.57;;;17.63;;
9667;SDS011;4872;48.316;10.650;2023-03-01T18:25:26;22.43;;;17.70;;
9667;SDS011;4872;48.316;10.650;2023-03-01T18:27:53;26.53;;;18.63;;
9667;SDS011;4872;48.316;10.650;2023-03-01T18:30:20;27.47;;;18.87;;
9667;SDS011;4872;48.316;10.650;2023-03-01T18:32:47;26.07;;;18.20;;
9667;SDS011;4872;48.316;10.650;2023-03-01T18:35:20;23.40;;;18.17;;
9667;SDS011;4872;48.316;10.650;2023-03-01T18:37:48;29.60;;;19.60;;
9667;SDS011;4872;48.316;10.650;2023-03-01T18:40:15;26.63;;;18.77;;
9667;SDS011;4872;48.316;10.650;2023-03-01T18:42:42;22.07;;;17.87;;
9667;SDS011;4872;48.316;10.650;2023-03-01T18:45:09;26.07;;;18.13;;
9667;SDS011;4872;48.316;10.650;2023-03-01T18:47:38;25.33;;;17.93;;
9667;SDS011;4872;48.316;10.650;2023-03-01T18:50:05;25.17;;;17.63;;
9667;SDS011;4872;48.316;10.650;2023-03-01T18:52:32;24.53;;;17.70;;
9667;SDS011;4872;48.316;10.650;2023-03-01T18:55:00;23.30;;;17.03;;
9667;SDS011;4872;48.316;10.650;2023-03-01T18:57:27;27.13;;;18.97;;
9667;SDS011;4872;48.316;10.650;2023-03-01T18:59:54;26.13;;;19.20;;
9667;SDS011;4872;48.316;10.650;2023-03-01T19:02:20;26.97;;;19.63;;
9667;SDS011;4872;48.316;10.650;2023-03-01T19:04:48;27.90;;;18.93;;
9667;SDS011;4872;48.316;10.650;2023-03-01T19:07:15;31.47;;;19.93;;
9667;SDS011;4872;48.316;10.650;2023-03-01T19:09:42;24.17;;;18.13;;
9667;SDS011;4872;48.316;10.650;2023-03-01T19:12:10;28.80;;;19.40;;
9667;SDS011;4872;48.316;10.650;2023-03-01T19:14:37;27.63;;;19.27;;
9667;SDS011;4872;48.316;10.650;2023-03-01T19:17:04;28.77;;;20.13;;
9667;SDS011;4872;48.316;10.650;2023-03-01T19:19:30;28.07;;;19.90;;
9667;SDS011;4872;48.316;10.650;2023-03-01T19:21:57;26.30;;;20.23;;
9667;SDS011;4872;48.316;10.650;2023-03-01T19:24:24;28.13;;;20.87;;
9667;SDS011;4872;48.316;10.650;2023-03-01T19:26:52;28.20;;;20.50;;
9667;SDS011;4872;48.316;10.650;2023-03-01T19:29:21;27.90;;;19.40;;
9667;SDS011;4872;48.316;10.650;2023-03-01T19:31:48;29.87;;;20.90;;
9667;SDS011;4872;48.316;10.650;2023-03-01T19:34:14;28.87;;;20.57;;
9667;SDS011;4872;48.316;10.650;2023-03-01T19:36:41;28.30;;;19.83;;
9667;SDS011;4872;48.316;10.650;2023-03-01T19:39:09;28.87;;;21.40;;
9667;SDS011;4872;48.316;10.650;2023-03-01T19:41:37;30.63;;;21.50;;
9667;SDS011;4872;48.316;10.650;2023-03-01T19:44:05;27.73;;;19.93;;
9667;SDS011;4872;48.316;10.650;2023-03-01T19:46:35;32.10;;;22.07;;
9667;SDS011;4872;48.316;10.650;2023-03-01T19:49:02;30.23;;;20.87;;
9667;SDS011;4872;48.316;10.650;2023-03-01T19:51:29;30.63;;;22.87;;
9667;SDS011;4872;48.316;10.650;2023-03-01T19:53:57;32.20;;;21.97;;
9667;SDS011;4872;48.316;10.650;2023-03-01T19:56:24;28.53;;;20.87;;
9667;SDS011;4872;48.316;10.650;2023-03-01T19:58:51;31.43;;;21.23;;
9667;SDS011;4872;48.316;10.650;2023-03-01T20:01:24;32.03;;;21.83;;
9667;SDS011;4872;48.316;10.650;2023-03-01T20:03:55;31.30;;;21.63;;
9667;SDS011;4872;48.316;10.650;2023-03-01T20:06:21;30.83;;;20.33;;
9667;SDS011;4872;48.316;10.650;2023-03-01T20:08:49;31.50;;;22.00;;
9667;SDS011;4872;48.316;10.650;2023-03-01T20:11:16;30.87;;;22.07;;
9667;SDS011;4872;48.316;10.650;2023-03-01T20:13:44;31.40;;;21.40;;
9667;SDS011;4872;48.316;10.650;2023-03-01T20:16:11;31.20;;;21.27;;
9667;SDS011;4872;48.316;10.650;2023-03-01T20:18:42;33.60;;;21.57;;
9667;SDS011;4872;48.316;10.650;2023-03-01T20:21:10;29.87;;;21.23;;
9667;SDS011;4872;48.316;10.650;2023-03-01T20:23:37;33.13;;;21.33;;